This is the latest recevied weather packets stored in our database for station/object W9PEM-13. If no packets are shown the sender has not sent any weather packets the latest 10 day(s).
| Time | Temp. | Humidity | Pressure | Rain* | Wind** | Luminosity | Snow |
|---|---|---|---|---|---|---|---|
| 1777772442 | 5.56° C | 75% | 983.5 hPa | 0 mm | - | 0 W/m² | - |
| 1777771843 | 6.11° C | 74% | 983.4 hPa | 0 mm | - | 0 W/m² | - |
| 1777771241 | 6.11° C | 73% | 983.4 hPa | 0 mm | - | 0 W/m² | - |
| 1777770641 | 6.67° C | 72% | 983.4 hPa | 0 mm | - | 0 W/m² | - |
| 1777770041 | 6.67° C | 71% | 983.4 hPa | 0 mm | - | 2 W/m² | - |
| 1777769442 | 6.67° C | 71% | 983.5 hPa | 0 mm | - | 5 W/m² | - |
| 1777768842 | 7.22° C | 69% | 983.5 hPa | 0 mm | - | 12 W/m² | - |
| 1777768242 | 7.78° C | 68% | 983.6 hPa | 0 mm | - | 21 W/m² | - |
| 1777767642 | 7.78° C | 66% | 983.6 hPa | 0 mm | - | 32 W/m² | - |
| 1777767041 | 8.33° C | 63% | 983.6 hPa | 0 mm | - | 58 W/m² | - |
| 1777766441 | 8.89° C | 62% | 983.7 hPa | 0 mm | - | 88 W/m² | - |
| 1777765841 | 8.89° C | 61% | 983.8 hPa | 0 mm | - | 84 W/m² | - |
| 1777765241 | 8.33° C | 61% | 983.8 hPa | 0 mm | - | 91 W/m² | - |
| 1777764041 | 8.89° C | 64% | 984.1 hPa | 0 mm | - | 139 W/m² | - |
| 1777763443 | 9.44° C | 57% | 984.2 hPa | 0 mm | - | 135 W/m² | - |
| 1777762841 | 9.44° C | 55% | 984.2 hPa | 0 mm | - | 212 W/m² | - |
| 1777762241 | 8.89° C | 57% | 984.4 hPa | 0 mm | - | 192 W/m² | - |
| 1777761641 | 9.44° C | 54% | 984.4 hPa | 0 mm | - | 123 W/m² | - |
| 1777761041 | 9.44° C | 54% | 984.5 hPa | 0 mm | - | 272 W/m² | - |
| 1777760441 | 9.44° C | 53% | 984.6 hPa | 0 mm | - | 215 W/m² | - |
| 1777759842 | 9.44° C | 52% | 984.7 hPa | 0 mm | - | 139 W/m² | - |
| 1777759241 | 9.44° C | 55% | 984.8 hPa | 0 mm | - | 199 W/m² | - |
| 1777758641 | 10° C | 51% | 984.8 hPa | 0 mm | - | 253 W/m² | - |
| 1777758041 | 9.44° C | 55% | 984.9 hPa | 0 mm | - | 318 W/m² | - |
| 1777756841 | 9.44° C | 54% | 985.1 hPa | 0 mm | - | 506 W/m² | - |
* Rain latest hour (hover to see other rain measurements)
** Current wind speed in m/s (hover to see current wind gust speed)